Latest Weather Observations for Browse Island

IDW60801

Issued at 10:05 am WST Thursday 23 October 2014 (issued every 30 minutes, with the page automatically refreshed every 10 minutes)

About weather observations | Map of weather stations | Latest weather observations for WA | Other Formats
Station Details ID: 200784 Name: BROWSE ISLAND Lat: -14.11 Lon: 123.55 Height: 3.7 m
Data from the previous 72 hours. | See also: Recent months for locations in Western Australia
Date/Time
WST
Temp
°C
App
Temp
°C
Dew
Point
Rel
Hum
%
Delta-T
°C
Wind Press
QNH
hPa
Press
MSL
hPa
Rain
since 9 am
mm
Dir
 
Spd
km/h
Gust
km/h
Spd
kts
Gust
kts
23/10:00am 29.4 - - - - NW 15 15 8 8 1013.0 1013.3 -
23/09:30am 29.0 - - - - NW 15 15 8 8 1013.0 - -
23/09:00am 28.2 - - - - NW 15 - 8 - 1013.0 1013.5 -
23/08:30am 28.0 - - - - NNW 13 - 7 - 1013.0 - -
23/08:00am 28.0 - - - - NNW 13 - 7 - 1013.0 1013.8 -
23/07:30am 28.0 - - - - NNW 15 17 8 9 1013.0 - -
23/07:00am 27.7 - - - - NNW 15 - 8 - 1013.0 1013.3 -
23/06:30am 28.0 - - - - NNW 15 - 8 - 1012.0 - -
23/06:00am 27.3 - - - - NW 15 19 8 10 1012.0 1012.4 -
23/05:30am 27.0 - - - - NNW 17 - 9 - 1012.0 - -
23/05:00am 27.4 - - - - NW 15 - 8 - 1012.0 1011.9 -
23/04:30am 27.0 - - - - NW 17 - 9 - 1011.0 - -
23/04:00am 27.5 - - - - NW 17 - 9 - 1011.0 1011.2 -
23/03:30am 28.0 - - - - NW 15 - 8 - 1011.0 - -
23/03:00am 27.4 - - - - NW 15 - 8 - 1011.0 1011.1 -
23/02:30am 28.0 - - - - NW 13 - 7 - 1011.0 - -
23/02:00am 27.5 - - - - NW 13 - 7 - 1011.0 1011.3 -
23/01:30am 28.0 - - - - NW 17 - 9 - 1011.0 - -
23/01:00am 27.7 - - - - NW 13 - 7 - 1011.0 1011.8 -
23/12:30am 28.0 - - - - NNW 15 - 8 - 1012.0 - -
23/12:00am 27.9 - - - - N 13 15 7 8 1012.0 1012.5 -
 
Date/Time
WST
Temp
°C
App
Temp
°C
Dew
Point
Rel
Hum
%
Delta-T
°C
Wind Press
QNH
hPa
Press
MSL
hPa
Rain
since 9 am
mm
Dir
 
Spd
km/h
Gust
km/h
Spd
kts
Gust
kts
22/11:30pm 28.0 - - - - N 15 - 8 - 1013.0 - -
22/11:00pm 28.0 - - - - NNW 15 - 8 - 1013.0 1013.2 -
22/10:30pm 28.0 - - - - NW 15 - 8 - 1013.0 - -
22/10:00pm 27.9 - - - - NNW 15 - 8 - 1013.0 1013.6 -
22/09:30pm 28.0 - - - - NW 15 - 8 - 1013.0 - -
22/09:00pm 28.1 - - - - NW 17 - 9 - 1013.0 1013.2 -
22/08:30pm 28.0 - - - - WNW 17 - 9 - 1013.0 - -
22/08:00pm 28.1 - - - - WNW 19 - 10 - 1013.0 1012.9 -
22/07:30pm 28.0 - - - - NW 19 - 10 - 1012.0 - -
22/07:00pm 28.1 - - - - NNW 20 - 11 - 1012.0 1012.6 -
22/06:30pm 28.0 - - - - NNW 19 - 10 - 1012.0 - -
22/06:00pm 28.3 - - - - N 19 20 10 11 1012.0 1012.1 -
22/05:30pm 28.0 - - - - NNW 20 - 11 - 1011.0 - -
22/05:00pm 28.5 - - - - N 15 - 8 - 1011.0 1011.7 -
22/04:30pm 29.0 - - - - NNW 17 - 9 - 1011.0 - -
22/04:00pm 28.7 - - - - N 17 - 9 - 1011.0 1011.4 -
22/03:30pm 29.0 - - - - NW 15 - 8 - 1011.0 - -
22/03:00pm 28.9 - - - - WNW 13 - 7 - 1011.0 1011.2 -
22/02:30pm 29.0 - - - - NW 13 - 7 - 1011.0 - -
22/02:00pm 29.6 - - - - NW 13 - 7 - 1011.0 1011.6 -
22/01:30pm 30.0 - - - - NW 15 - 8 - 1011.0 - -
22/01:00pm 28.5 - - - - NNW 17 - 9 - 1012.0 1012.0 -
22/12:30pm 30.0 - - - - NNW 15 - 8 - 1012.0 - -
22/12:00pm 28.6 - - - - NNW 15 - 8 - 1013.0 1013.0 -
22/11:30am 29.0 - - - - NNW 17 - 9 - 1013.0 - -
22/11:00am 28.3 - - - - NW 15 - 8 - 1013.0 1013.7 -
22/10:30am 29.0 - - - - NW 15 - 8 - 1013.0 - -
22/10:00am 28.5 - - - - WNW 15 - 8 - 1014.0 1013.9 -
22/09:30am 28.0 - - - - WNW 13 - 7 - 1014.0 - -
22/09:00am 28.2 - - - - WNW 13 - 7 - 1014.0 1014.4 -
22/08:30am 28.0 - - - - WNW 13 - 7 - 1014.0 - -
22/08:00am 27.9 - - - - WNW 13 - 7 - 1014.0 1014.2 -
22/07:30am 28.0 - - - - WNW 13 - 7 - 1014.0 - -
22/07:00am 27.8 - - - - WNW 15 - 8 - 1013.0 1013.7 -
22/06:30am 28.0 - - - - WNW 13 - 7 - 1013.0 - -
22/06:00am 27.5 - - - - WNW 13 - 7 - 1013.0 1013.0 -
22/05:30am 28.0 - - - - WNW 13 - 7 - 1012.0 - -
22/05:00am 27.6 - - - - WNW 15 - 8 - 1012.0 1012.5 -
22/04:30am 28.0 - - - - WNW 17 - 9 - 1012.0 - -
22/04:00am 27.5 - - - - W 15 - 8 - 1012.0 1012.0 -
22/03:30am 28.0 - - - - W 15 - 8 - 1012.0 - -
22/03:00am 27.7 - - - - W 15 - 8 - 1012.0 1012.2 -
22/02:30am 28.0 - - - - WNW 13 - 7 - 1012.0 - -
22/02:00am 27.9 - - - - NW 13 - 7 - 1012.0 1012.2 -
22/01:30am 28.0 - - - - NNW 15 - 8 - 1012.0 - -
22/01:00am 27.9 - - - - NNW 19 - 10 - 1012.0 1012.2 -
22/12:30am 28.0 - - - - NNW 20 - 11 - 1012.0 - -
22/12:00am 27.8 - - - - NNW 20 - 11 - 1012.0 1012.4 -
 
Date/Time
WST
Temp
°C
App
Temp
°C
Dew
Point
Rel
Hum
%
Delta-T
°C
Wind Press
QNH
hPa
Press
MSL
hPa
Rain
since 9 am
mm
Dir
 
Spd
km/h
Gust
km/h
Spd
kts
Gust
kts
21/11:30pm 28.0 - - - - NNW 20 - 11 - 1012.0 - -
21/11:00pm 28.0 - - - - NNW 19 - 10 - 1013.0 1013.0 -
21/10:30pm 28.0 - - - - NW 17 - 9 - 1013.0 - -
21/10:00pm 28.1 - - - - NW 17 - 9 - 1013.0 1013.8 -
21/09:30pm 28.0 - - - - NW 15 - 8 - 1014.0 - -
21/09:00pm 28.2 - - - - NW 15 - 8 - 1013.0 1013.8 -
21/08:30pm 28.0 - - - - NW 15 - 8 - 1013.0 - -
21/08:00pm 28.2 - - - - WNW 15 - 8 - 1013.0 1013.6 -
21/07:30pm 28.0 - - - - WNW 13 - 7 - 1013.0 - -
21/07:00pm 28.4 - - - - W 15 - 8 - 1013.0 1013.3 -
21/06:30pm 28.0 - - - - W 15 - 8 - 1013.0 - -
21/06:00pm 28.5 - - - - W 15 - 8 - 1013.0 1012.9 -
21/05:30pm 29.0 - - - - W 15 - 8 - 1012.0 - -
21/05:00pm 28.6 - - - - W 17 - 9 - 1012.0 1012.1 -
21/04:30pm 29.0 - - - - W 17 - 9 - 1011.0 - -
21/04:00pm 28.8 - - - - W 20 - 11 - 1011.0 1011.6 -
21/03:30pm 29.0 - - - - W 19 - 10 - 1011.0 - -
21/03:00pm 28.9 - - - - W 19 - 10 - 1011.0 1011.8 -
21/02:30pm 29.0 - - - - W 19 - 10 - 1012.0 - -
21/02:00pm 29.0 - - - - W 17 - 9 - 1012.0 1012.2 -
21/01:30pm 29.0 - - - - W 17 - 9 - 1012.0 - -
21/01:00pm 29.2 - - - - W 20 - 11 - 1013.0 1013.2 -
21/12:30pm 30.0 - - - - W 20 - 11 - 1013.0 - -
21/12:00pm 29.5 - - - - W 19 - 10 - 1014.0 1014.0 -
21/11:30am 30.0 - - - - W 19 - 10 - 1014.0 - -
21/11:00am 29.2 - - - - W 24 - 13 - 1014.0 1014.5 -
21/10:30am 29.0 - - - - W 24 - 13 - 1014.0 - -
21/10:00am 28.9 - - - - W 19 - 10 - 1015.0 1015.1 -
21/09:30am 29.0 - - - - WNW 19 - 10 - 1015.0 - -
21/09:00am 28.8 - - - - W 17 - 9 - 1015.0 1015.5 -
21/08:30am 29.0 - - - - W 19 - 10 - 1015.0 - -
21/08:00am 28.5 - - - - W 17 - 9 - 1015.0 1015.3 -
21/07:30am 28.0 - - - - W 15 - 8 - 1015.0 - -
21/07:00am 28.4 - - - - W 15 - 8 - 1015.0 1014.9 -
21/06:30am 28.0 - - - - WSW 15 - 8 - 1014.0 - -
21/06:00am 28.0 - - - - SW 17 - 9 - 1014.0 1014.2 -
21/05:30am 28.0 - - - - SW 15 - 8 - 1014.0 - -
21/05:00am 27.7 - - - - WSW 13 - 7 - 1013.0 1013.5 -
21/04:30am 28.0 - - - - WSW 13 - 7 - 1013.0 - -
21/04:00am 27.6 - - - - SW 11 - 6 - 1013.0 1013.1 -
21/03:30am 28.0 - - - - SW 13 - 7 - 1013.0 - -
21/03:00am 27.8 - - - - SW 17 - 9 - 1012.0 1012.6 -
21/02:30am 28.0 - - - - SW 19 - 10 - 1012.0 - -
21/02:00am 28.1 - - - - SW 22 - 12 - 1012.0 1012.1 -
21/01:30am 28.0 - - - - SW 22 - 12 - 1012.0 - -
21/01:00am 28.2 - - - - WSW 20 - 11 - 1012.0 1012.2 -
21/12:30am 28.0 - - - - WSW 19 - 10 - 1012.0 - -
21/12:00am 28.3 - - - - WSW 19 - 10 - 1013.0 1012.9 -
 
Date/Time
WST
Temp
°C
App
Temp
°C
Dew
Point
Rel
Hum
%
Delta-T
°C
Wind Press
QNH
hPa
Press
MSL
hPa
Rain
since 9 am
mm
Dir
 
Spd
km/h
Gust
km/h
Spd
kts
Gust
kts
20/11:30pm 28.0 - - - - W 17 - 9 - 1013.0 - -
20/11:00pm 28.2 - - - - W 17 - 9 - 1013.0 1013.7 -
20/10:30pm 28.0 - - - - W 17 - 9 - 1013.0 - -
20/10:00pm 28.1 - - - - W 17 - 9 - 1014.0 1014.0 -
20/09:30pm 28.0 - - - - W 17 - 9 - 1014.0 - -
20/09:00pm 28.1 - - - - W 17 - 9 - 1014.0 1013.9 -
20/08:30pm 28.0 - - - - W 19 - 10 - 1014.0 - -
20/08:00pm 28.0 - - - - W 19 - 10 - 1013.0 1013.6 -
20/07:30pm 28.0 - - - - W 19 - 10 - 1013.0 - -
20/07:00pm 28.0 - - - - W 19 - 10 - 1013.0 1013.0 -
20/06:30pm 28.0 - - - - W 19 - 10 - 1012.0 - -
20/06:00pm 27.9 - - - - W 17 - 9 - 1012.0 1012.2 -
20/05:30pm 28.0 - - - - W 15 - 8 - 1012.0 - -
20/05:00pm 28.2 - - - - WSW 11 - 6 - 1012.0 1012.0 -
20/04:30pm 28.0 - - - - WSW 13 - 7 - 1012.0 - -
20/04:00pm 28.4 - - - - WSW 11 - 6 - 1011.0 1011.8 -
20/03:30pm 28.0 - - - - SSW 9 - 5 - 1012.0 - -
20/03:00pm 29.2 - - - - S 9 - 5 - 1012.0 1012.3 -
20/02:30pm 29.0 - - - - SSW 11 - 6 - 1012.0 - -
20/02:00pm 29.3 - - - - S 7 - 4 - 1012.0 1012.6 -
20/01:30pm 29.0 - - - - S 9 - 5 - 1012.0 - -
20/01:00pm 29.3 - - - - SSE 9 - 5 - 1013.0 1013.3 -
20/12:30pm 29.0 - - - - S 13 - 7 - 1013.0 - -
20/12:00pm 27.9 - - - - S 19 - 10 - 1013.0 1013.4 -
20/11:30am 28.0 - - - - S 17 - 9 - 1013.0 - -
20/11:00am 28.1 - - - - S 17 - 9 - 1014.0 1014.3 -
20/10:30am 28.0 - - - - S 17 - 9 - 1014.0 - -

Other Formats:

Comma delimited format used in spreadsheet applications
http://www.bom.gov.au/fwo/IDW60801/IDW60801.94103.axf

JavaScript Object Notation format (JSON) in row-major order
http://www.bom.gov.au/fwo/IDW60801/IDW60801.94103.json